Portada
METAR-TAF:

METAR-TAF

Aeroports :

Aeroport de Menorca

Menorca, Espanya

latitud: 39-52N, longitud: 004-14E, altitud: 87 m

Observació

L'informe es va fer fa 38 minuts, a les 14:30 UTC
Vent 15 kt del Nord/Nord-Est
Temperatura 24°C
Humitat 69%
Pressió 1021 hPa
Visibilitat 10 km o més
Escasses núvols a una alçada de 1800 ft
Cel ennuvolat a una alçada de 2800 ft

METAR: LEMH 241430Z 03015KT 9999 FEW018 BKN028 24/18 Q1021

Hora: 17:08 (15:08 UTC)

Pronòstic

L'informe es va fer fa 1 hora i 8 minuts, a les 14:00 UTC
Pronòstic vàlid del 24 a les 15 UTC al 25 a les 15 UTC
Vent 15 kt del Nord/Nord-Est
Visibilitat 10 km o més
Escasses núvols a una alçada de 2000 ft
Temporalment
l' 24 a les 15 UTC al 25 a les 12 UTC
Escasses núvols a una alçada de 2000 ft
Cel ennuvolat a una alçada de 3000 ft

TAF: LEMH 241400Z 2415/2515 02015KT 9999 FEW020 TX27/2512Z TN19/2505Z TEMPO 2415/2512 FEW020 BKN030

Observacions i pronòstics meteorològics de més de 4000 aeroports (METAR i TAF).

Les estacions disponibles són els punts grocs i vermells al mapa.

Posi el ratolí al punt desitjat per veure el nom de l'estació.

Feu clic per veure les observacions i els pronòstics meteorològics.

Per canviar el mapa: feu clic els botons verds amb una creu de color negre per apropar; al botó verd amb un guió per allunyar la imatge; o en les fletxes verdes per a mapes adjacents.


METAR-TAF: